Time;durP1;ratioP1;P1;durP2;ratioP2;P2;SDS_P1;SDS_P2;PMS_P1;PMS_P2;Temp;Humidity;BMP_temperature;BMP_pressure;BME280_temperature;BME280_humidity;BME280_pressure;Samples;Min_cycle;Max_cycle;Signal;HPM_P1;HPM_P2
2022/04/17 00:02:19;;;;;;;19.42;8.27;;;;;;;7.70;51.27;102809.69;5048275;28;20040;-78
2022/04/17 00:04:45;;;;;;;20.73;8.25;;;;;;;7.60;51.39;102803.75;5041897;28;20032;-78
2022/04/17 00:07:10;;;;;;;21.17;8.30;;;;;;;7.56;51.87;102804.75;5047777;28;20388;-78
2022/04/17 00:09:35;;;;;;;19.88;8.55;;;;;;;7.48;50.85;102799.63;5046580;28;20036;-78
2022/04/17 00:12:02;;;;;;;21.10;8.82;;;;;;;7.41;52.15;102808.75;5043481;28;20038;-78
2022/04/17 00:14:27;;;;;;;20.83;8.43;;;;;;;7.32;52.31;102806.31;5045830;28;20516;-78
2022/04/17 00:16:55;;;;;;;19.05;8.35;;;;;;;7.25;51.28;102807.44;5048142;28;20060;-78
2022/04/17 00:19:20;;;;;;;20.80;8.65;;;;;;;7.22;52.47;102803.03;5052413;28;20029;-78
2022/04/17 00:21:46;;;;;;;19.45;8.20;;;;;;;7.13;53.79;102797.94;5048297;28;20083;-78
2022/04/17 00:24:12;;;;;;;18.38;7.68;;;;;;;7.08;53.35;102810.56;5049860;28;20090;-78
2022/04/17 00:26:37;;;;;;;20.40;8.02;;;;;;;7.05;51.07;102802.63;5044072;28;20025;-78
2022/04/17 00:29:02;;;;;;;20.42;8.27;;;;;;;7.00;52.68;102803.63;5048301;28;20477;-78
2022/04/17 00:31:27;;;;;;;16.70;6.80;;;;;;;6.94;52.28;102809.13;5047222;28;20036;-78
2022/04/17 00:33:53;;;;;;;18.90;7.57;;;;;;;6.88;52.84;102809.31;5038736;28;20116;-78
2022/04/17 00:36:18;;;;;;;18.13;7.50;;;;;;;6.82;52.60;102805.00;5045758;28;20025;-78
2022/04/17 00:38:44;;;;;;;18.73;6.90;;;;;;;6.78;53.75;102807.78;5049420;28;20037;-78
2022/04/17 00:41:09;;;;;;;18.13;6.82;;;;;;;6.70;53.83;102802.63;5043759;28;20366;-78
2022/04/17 00:43:43;;;;;;;17.98;7.43;;;;;;;6.63;53.97;102796.59;5050350;28;20071;-78
2022/04/17 00:46:09;;;;;;;19.23;6.75;;;;;;;6.57;53.07;102801.19;5035922;28;20087;-78
2022/04/17 00:48:34;;;;;;;18.15;6.82;;;;;;;6.53;53.90;102797.72;5038838;28;20037;-78
2022/04/17 00:51:00;;;;;;;17.70;7.47;;;;;;;6.47;55.18;102792.50;5046414;28;20029;-78
2022/04/17 00:53:26;;;;;;;20.30;7.85;;;;;;;6.46;53.21;102796.13;5048577;28;20052;-78
2022/04/17 00:55:52;;;;;;;18.15;6.88;;;;;;;6.43;54.01;102796.19;5046233;28;20029;-78
2022/04/17 00:58:18;;;;;;;18.63;7.15;;;;;;;6.37;55.20;102790.97;5045580;28;20032;-78
2022/04/17 01:00:45;;;;;;;18.40;6.78;;;;;;;6.36;51.52;102791.94;5049775;28;20480;-78
2022/04/17 01:03:11;;;;;;;17.67;6.43;;;;;;;6.36;50.23;102794.59;5048729;28;20033;-78
2022/04/17 01:05:39;;;;;;;16.65;5.85;;;;;;;6.36;53.59;102782.09;5029530;28;20039;-77
2022/04/17 01:08:06;;;;;;;16.55;6.03;;;;;;;6.38;52.51;102784.72;5032784;28;20481;-77
2022/04/17 01:10:32;;;;;;;21.35;7.57;;;;;;;6.35;54.26;102788.34;5040675;28;20035;-77
2022/04/17 01:13:01;;;;;;;20.83;7.40;;;;;;;6.37;52.71;102790.97;5046558;28;20049;-77
2022/04/17 01:15:28;;;;;;;18.25;6.68;;;;;;;6.37;52.32;102786.53;5031165;28;20037;-77
2022/04/17 01:17:54;;;;;;;17.92;6.65;;;;;;;6.39;51.91;102783.84;5053784;28;20033;-77
2022/04/17 01:20:21;;;;;;;18.92;7.00;;;;;;;6.40;52.43;102782.91;5043998;28;20454;-77
2022/04/17 01:22:51;;;;;;;19.75;7.32;;;;;;;6.34;53.37;102783.94;5040259;28;20086;-77
2022/04/17 01:28:01;;;;;;;16.98;6.57;;;;;;;6.21;54.12;102788.69;5034112;28;20550;-77
2022/04/17 01:30:26;;;;;;;16.63;5.88;;;;;;;6.16;53.94;102793.25;5045622;28;20033;-77
2022/04/17 01:32:52;;;;;;;18.13;6.18;;;;;;;6.10;55.61;102790.72;5046224;28;20369;-77
2022/04/17 01:35:17;;;;;;;18.17;6.43;;;;;;;5.99;53.82;102796.34;5029144;28;20424;-77
2022/04/17 01:37:46;;;;;;;18.88;6.82;;;;;;;5.90;55.55;102796.50;5037871;28;20440;-77
2022/04/17 01:40:12;;;;;;;18.05;6.75;;;;;;;5.80;57.67;102790.50;5052403;28;20032;-77
2022/04/17 01:42:37;;;;;;;17.63;6.15;;;;;;;5.73;56.85;102796.88;5048584;28;20686;-77
2022/04/17 01:45:03;;;;;;;19.50;7.15;;;;;;;5.66;57.17;102795.25;5051949;28;20078;-77
2022/04/17 01:47:28;;;;;;;17.73;6.18;;;;;;;5.59;57.29;102797.16;5058074;28;20071;-77
2022/04/17 01:49:53;;;;;;;18.05;6.68;;;;;;;5.52;59.54;102795.53;5037339;28;20029;-77
2022/04/17 01:52:18;;;;;;;20.80;7.95;;;;;;;5.46;60.65;102799.22;5051786;28;20028;-77
2022/04/17 01:54:43;;;;;;;17.75;6.72;;;;;;;5.37;58.34;102796.72;5051852;28;20032;-77
2022/04/17 01:57:09;;;;;;;16.35;6.45;;;;;;;5.28;57.74;102791.59;5050292;28;20509;-77
2022/04/17 01:59:34;;;;;;;18.15;7.32;;;;;;;5.18;60.31;102796.22;5050011;28;20056;-77
2022/04/17 02:02:00;;;;;;;18.92;7.70;;;;;;;5.11;59.37;102795.47;5048312;28;20082;-77
2022/04/17 02:04:27;;;;;;;20.98;7.30;;;;;;;4.99;59.90;102785.00;5034425;28;20116;-77
2022/04/17 02:06:53;;;;;;;19.23;7.45;;;;;;;4.90;60.82;102788.72;5031661;28;20020;-77
2022/04/17 02:09:19;;;;;;;21.05;7.47;;;;;;;4.81;61.02;102792.44;5040465;28;20028;-77
2022/04/17 02:11:45;;;;;;;23.52;7.07;;;;;;;4.72;60.94;102792.59;5043827;28;20045;-77
2022/04/17 02:14:12;;;;;;;19.42;7.45;;;;;;;4.62;61.40;102786.56;5043875;28;20056;-77
2022/04/17 02:16:38;;;;;;;17.17;6.53;;;;;;;4.55;61.28;102780.47;5053919;28;20032;-77
2022/04/17 02:19:03;;;;;;;18.38;6.85;;;;;;;4.50;61.18;102779.66;5053432;28;20481;-77
2022/04/17 02:21:29;;;;;;;18.70;7.35;;;;;;;4.47;60.92;102781.50;5049938;28;20033;-77
2022/04/17 02:23:55;;;;;;;19.13;7.45;;;;;;;4.45;62.00;102777.97;5043251;28;20040;-77
2022/04/17 02:26:20;;;;;;;18.08;7.07;;;;;;;4.41;62.68;102769.16;5041885;28;20031;-77
2022/04/17 02:28:46;;;;;;;19.27;7.30;;;;;;;4.38;62.01;102780.75;5044517;28;20029;-77
2022/04/17 02:31:12;;;;;;;19.50;6.55;;;;;;;4.34;61.34;102776.34;5048545;28;20095;-77
2022/04/17 02:33:38;;;;;;;21.30;6.68;;;;;;;4.31;61.48;102780.88;5050402;28;20033;-77
2022/04/17 02:36:05;;;;;;;19.58;7.45;;;;;;;4.29;61.38;102785.31;5033511;28;20059;-77
2022/04/17 02:38:30;;;;;;;17.30;6.53;;;;;;;4.29;61.68;102782.66;5048846;28;20094;-77
2022/04/17 02:40:56;;;;;;;18.88;6.88;;;;;;;4.25;60.46;102775.66;5046775;28;20032;-77
2022/04/17 02:43:22;;;;;;;17.80;6.40;;;;;;;4.26;59.75;102778.28;5043859;28;20060;-77
2022/04/17 02:45:50;;;;;;;17.15;6.05;;;;;;;4.27;61.70;102774.69;5051146;28;20033;-77
2022/04/17 02:48:15;;;;;;;17.75;5.97;;;;;;;4.28;59.62;102776.47;5041053;28;20041;-77
2022/04/17 02:50:40;;;;;;;19.38;6.60;;;;;;;4.26;59.97;102772.06;5040680;28;20040;-77
2022/04/17 02:53:06;;;;;;;18.95;7.43;;;;;;;4.25;61.32;102773.84;5050584;28;20089;-77
2022/04/17 02:55:32;;;;;;;18.25;6.57;;;;;;;4.23;60.86;102769.44;5048415;28;20438;-77
2022/04/17 02:57:57;;;;;;;16.98;6.53;;;;;;;4.18;61.82;102773.06;5036114;28;20500;-77
2022/04/17 03:00:26;;;;;;;17.52;6.78;;;;;;;4.14;61.99;102773.13;5050411;28;20477;-77
2022/04/17 03:05:36;;;;;;;17.70;6.75;;;;;;;4.08;61.95;102759.94;5050546;28;20401;-77
2022/04/17 03:08:11;;;;;;;18.52;6.65;;;;;;;4.00;62.47;102760.06;5050609;28;20029;-77
2022/04/17 03:10:38;;;;;;;16.02;6.60;;;;;;;3.94;62.73;102754.81;5050115;28;20021;-77
2022/04/17 03:13:04;;;;;;;16.48;6.15;;;;;;;3.89;62.05;102754.00;5048162;28;20049;-77
2022/04/17 03:15:31;;;;;;;16.38;5.90;;;;;;;3.86;62.65;102752.25;5047969;28;20025;-77
2022/04/17 03:17:58;;;;;;;16.55;5.68;;;;;;;3.81;61.49;102755.00;5065405;28;20091;-77
2022/04/17 03:20:24;;;;;;;20.20;5.63;;;;;;;3.81;62.20;102759.44;5047051;28;20037;-77
2022/04/17 03:22:50;;;;;;;17.13;6.28;;;;;;;3.83;63.03;102752.31;5044628;28;20047;-77
2022/04/17 03:25:15;;;;;;;18.38;6.80;;;;;;;3.83;63.04;102749.66;5037102;28;20049;-77
2022/04/17 03:27:43;;;;;;;20.85;6.50;;;;;;;3.85;63.87;102746.06;5047366;28;20023;-77
2022/04/17 03:30:09;;;;;;;17.58;6.38;;;;;;;3.82;63.56;102740.81;5037727;28;20033;-77
2022/04/17 03:32:35;;;;;;;17.08;5.88;;;;;;;3.79;63.86;102738.19;5043022;28;20028;-77
2022/04/17 03:35:00;;;;;;;17.40;6.20;;;;;;;3.77;62.67;102737.31;5049332;28;20413;-77
2022/04/17 03:37:25;;;;;;;20.60;6.68;;;;;;;3.78;63.32;102739.09;5051383;28;20385;-77
2022/04/17 03:39:51;;;;;;;18.63;6.22;;;;;;;3.74;63.28;102737.38;5039664;28;20123;-77
2022/04/17 03:42:17;;;;;;;18.95;5.80;;;;;;;3.72;63.93;102738.28;5033763;28;20036;-77
2022/04/17 03:44:42;;;;;;;17.70;6.03;;;;;;;3.69;63.06;102736.56;5036513;28;20037;-77
2022/04/17 03:47:07;;;;;;;18.30;6.18;;;;;;;3.63;63.18;102741.94;5046415;28;20705;-77
2022/04/17 03:49:33;;;;;;;16.98;5.90;;;;;;;3.56;63.41;102734.94;5040437;28;20032;-77
2022/04/17 03:52:00;;;;;;;16.48;5.30;;;;;;;3.56;65.55;102733.19;5032291;28;20029;-77
2022/04/17 03:54:26;;;;;;;19.40;6.57;;;;;;;3.56;63.72;102729.63;5047344;28;20025;-77
2022/04/17 03:56:52;;;;;;;16.10;5.95;;;;;;;3.56;64.64;102732.28;5048531;28;20040;-77
2022/04/17 03:59:17;;;;;;;18.73;6.35;;;;;;;3.55;64.56;102738.53;5050911;28;20128;-77
2022/04/17 04:01:42;;;;;;;18.40;7.05;;;;;;;3.48;64.03;102735.06;5046065;28;20057;-77
2022/04/17 04:04:08;;;;;;;18.25;5.68;;;;;;;3.43;64.38;102732.47;5033870;28;20032;-77
2022/04/17 04:06:33;;;;;;;17.83;6.15;;;;;;;3.36;64.92;102730.78;5047560;28;20025;-77
2022/04/17 04:08:59;;;;;;;17.15;6.07;;;;;;;3.31;64.84;102737.94;5048362;28;20039;-77
2022/04/17 04:11:24;;;;;;;16.95;6.45;;;;;;;3.24;64.88;102726.50;5046302;28;20032;-77
2022/04/17 04:13:50;;;;;;;16.83;5.63;;;;;;;3.23;64.46;102722.06;5049212;28;20143;-77
2022/04/17 04:16:15;;;;;;;18.55;6.18;;;;;;;3.23;64.99;102726.53;5035397;28;20033;-77
2022/04/17 04:18:40;;;;;;;21.38;6.57;;;;;;;3.23;64.77;102723.88;5038582;28;20070;-77
2022/04/17 04:21:05;;;;;;;17.55;6.47;;;;;;;3.22;65.62;102719.44;5040706;28;20033;-77
2022/04/17 04:23:34;;;;;;;18.10;6.65;;;;;;;3.18;65.68;102712.41;5031174;28;20079;-77
2022/04/17 04:26:01;;;;;;;20.67;6.50;;;;;;;3.12;65.51;102711.59;5029375;28;20033;-77
2022/04/17 04:28:38;;;;;;;17.83;6.15;;;;;;;3.08;66.07;102709.00;5048667;28;20049;-77
2022/04/17 04:31:08;;;;;;;16.50;5.60;;;;;;;3.10;65.71;102708.06;5046562;28;20097;-77
2022/04/17 04:33:35;;;;;;;16.23;6.15;;;;;;;3.09;65.48;102716.94;5049517;28;20551;-77
2022/04/17 04:36:01;;;;;;;18.42;6.45;;;;;;;3.07;64.95;102712.53;5047819;28;20020;-77
2022/04/17 04:38:26;;;;;;;18.65;6.13;;;;;;;3.05;65.05;102717.00;5049570;28;20021;-77
2022/04/17 04:40:52;;;;;;;18.25;5.95;;;;;;;3.05;65.39;102711.69;5048604;28;20344;-77
2022/04/17 04:43:17;;;;;;;15.77;5.78;;;;;;;3.02;64.79;102707.28;5045311;28;20108;-77
2022/04/17 04:51:10;;;;;;;18.23;6.60;;;;;;;2.92;64.80;102713.59;5049413;28;20526;-77
2022/04/17 04:53:36;;;;;;;17.08;6.40;;;;;;;2.94;65.70;102702.06;5033600;28;20030;-77
2022/04/17 04:56:01;;;;;;;18.35;6.13;;;;;;;2.95;65.51;102702.94;5029211;28;20092;-77
2022/04/17 04:58:26;;;;;;;17.10;6.22;;;;;;;2.93;66.00;102704.75;5033220;28;20548;-77
2022/04/17 05:00:52;;;;;;;17.02;5.88;;;;;;;2.88;66.11;102702.13;5042474;28;20384;-77
2022/04/17 05:03:17;;;;;;;17.23;7.22;;;;;;;2.87;66.57;102699.47;5048481;28;20052;-77
2022/04/17 05:05:42;;;;;;;17.90;6.35;;;;;;;2.84;66.56;102702.19;5048736;28;20040;-77
2022/04/17 05:08:07;;;;;;;18.42;6.70;;;;;;;2.78;67.96;102712.00;5037023;28;20511;-77
2022/04/17 05:10:33;;;;;;;16.75;6.10;;;;;;;2.76;68.25;102712.88;5037321;28;20137;-77
2022/04/17 05:12:59;;;;;;;19.73;6.40;;;;;;;2.74;67.39;102714.69;5048064;28;20045;-77
2022/04/17 05:15:24;;;;;;;22.10;6.57;;;;;;;2.75;67.49;102714.69;5052543;28;20500;-77
2022/04/17 05:17:50;;;;;;;17.45;6.70;;;;;;;2.77;67.80;102718.19;5053540;28;20108;-77
2022/04/17 05:20:15;;;;;;;19.83;6.90;;;;;;;2.79;68.50;102718.16;5047511;28;20753;-77
2022/04/17 05:22:40;;;;;;;22.27;7.32;;;;;;;2.79;67.81;102718.16;5045280;28;20028;-76
2022/04/17 05:25:06;;;;;;;18.23;5.85;;;;;;;2.84;67.86;102712.78;5036660;28;20035;-76
2022/04/17 05:27:32;;;;;;;18.30;6.32;;;;;;;2.87;67.78;102707.44;5050569;28;20397;-76
2022/04/17 05:29:58;;;;;;;17.30;6.75;;;;;;;2.90;68.67;102716.28;5040893;28;20122;-76
2022/04/17 05:32:23;;;;;;;17.58;6.72;;;;;;;2.94;68.81;102709.16;5034904;28;20041;-76
2022/04/17 05:34:48;;;;;;;17.38;7.38;;;;;;;3.02;69.11;102715.25;5052481;28;20500;-76
2022/04/17 05:37:13;;;;;;;18.58;6.57;;;;;;;3.08;69.54;102709.88;5051872;28;20102;-76
2022/04/17 05:39:39;;;;;;;21.08;6.70;;;;;;;3.16;66.65;102704.44;5053197;28;20124;-76
2022/04/17 05:42:04;;;;;;;18.20;6.63;;;;;;;3.27;67.91;102715.84;5048626;28;20022;-76
2022/04/17 05:44:29;;;;;;;19.83;7.53;;;;;;;3.36;66.95;102714.84;5038402;28;20025;-76
2022/04/17 05:46:56;;;;;;;18.20;6.72;;;;;;;3.44;66.28;102712.06;5053078;28;20052;-76
2022/04/17 05:49:21;;;;;;;18.00;7.18;;;;;;;3.53;67.20;102713.72;5050115;28;20408;-76
2022/04/17 05:51:47;;;;;;;17.13;6.15;;;;;;;3.62;66.43;102714.50;5050978;28;20033;-76
2022/04/17 05:54:12;;;;;;;20.25;7.18;;;;;;;3.72;65.67;102717.91;5050180;28;20037;-76
2022/04/17 05:56:38;;;;;;;14.60;5.53;;;;;;;3.86;63.13;102717.69;5051539;28;20534;-76
2022/04/17 05:59:05;;;;;;;16.75;6.85;;;;;;;3.99;64.50;102721.03;5052211;28;20071;-76
2022/04/17 06:01:30;;;;;;;17.77;6.40;;;;;;;4.12;62.63;102716.41;5035811;28;20034;-76
2022/04/17 06:03:56;;;;;;;17.15;6.25;;;;;;;4.26;61.50;102714.41;5049677;28;20407;-76
2022/04/17 06:06:21;;;;;;;20.25;6.57;;;;;;;4.38;61.50;102706.19;5043148;28;20036;-76
2022/04/17 06:08:47;;;;;;;23.50;6.78;;;;;;;4.50;61.38;102710.41;5051808;28;20159;-76
2022/04/17 06:11:13;;;;;;;17.70;6.80;;;;;;;4.64;61.22;102709.28;5051959;28;20048;-76
2022/04/17 06:13:38;;;;;;;17.85;6.05;;;;;;;4.77;60.59;102712.59;5047767;28;20060;-76
2022/04/17 06:16:04;;;;;;;16.42;5.80;;;;;;;4.88;59.60;102705.28;5036616;28;20401;-76
2022/04/17 06:18:29;;;;;;;18.35;6.28;;;;;;;5.00;60.13;102704.19;5050723;28;20048;-76
2022/04/17 06:20:55;;;;;;;16.55;6.05;;;;;;;5.09;59.59;102698.66;5047268;28;20041;-76
2022/04/17 06:23:20;;;;;;;17.38;6.43;;;;;;;5.21;59.05;102705.50;5037534;28;20041;-76
2022/04/17 06:25:45;;;;;;;17.00;6.30;;;;;;;5.28;59.77;102707.13;5051841;28;20491;-76
2022/04/17 06:28:11;;;;;;;18.40;5.90;;;;;;;5.35;59.45;102694.56;5051031;28;20029;-76
2022/04/17 06:30:36;;;;;;;16.30;5.05;;;;;;;5.45;58.52;102692.56;5048701;28;20021;-76
2022/04/17 06:33:02;;;;;;;18.75;5.60;;;;;;;5.54;58.20;102693.25;5040837;28;20040;-76
2022/04/17 06:35:27;;;;;;;15.70;5.40;;;;;;;5.64;58.15;102695.69;5049721;28;20361;-76
2022/04/17 06:37:54;;;;;;;15.80;5.38;;;;;;;5.74;56.55;102700.78;5048538;28;20048;-76
2022/04/17 06:40:23;;;;;;;17.40;5.20;;;;;;;5.89;57.71;102696.88;5042815;28;20472;-76
2022/04/17 06:42:50;;;;;;;14.20;5.30;;;;;;;6.04;55.93;102700.13;5048372;28;20076;-76
2022/04/17 06:45:17;;;;;;;14.00;4.63;;;;;;;6.13;55.60;102702.56;5052409;28;20060;-76
2022/04/17 06:47:42;;;;;;;13.65;4.68;;;;;;;6.23;55.09;102698.75;5060330;28;20028;-76
2022/04/17 06:50:08;;;;;;;14.57;5.00;;;;;;;6.38;54.38;102705.47;5047698;28;20037;-76
2022/04/17 06:52:33;;;;;;;15.27;5.03;;;;;;;6.47;53.13;102694.59;5050427;28;20040;-76
2022/04/17 06:54:59;;;;;;;17.90;5.50;;;;;;;6.58;52.76;102694.28;5042392;28;20041;-76
2022/04/17 06:57:32;;;;;;;15.05;5.40;;;;;;;6.71;52.57;102691.28;5044337;28;20033;-76
2022/04/17 06:59:58;;;;;;;14.70;5.03;;;;;;;6.78;53.06;102687.53;5044649;28;20098;-76
2022/04/17 07:02:24;;;;;;;13.07;4.28;;;;;;;6.83;53.08;102689.13;5036183;28;20581;-76
2022/04/17 07:04:49;;;;;;;13.60;4.47;;;;;;;6.94;53.73;102685.28;5050593;28;20044;-76
2022/04/17 07:07:16;;;;;;;17.65;5.38;;;;;;;6.98;53.03;102693.19;5047833;28;20469;-76
2022/04/17 07:09:41;;;;;;;15.90;5.03;;;;;;;7.04;52.69;102686.75;5039210;28;20024;-76
2022/04/17 07:12:07;;;;;;;18.25;5.28;;;;;;;7.11;52.16;102688.34;5049004;28;20132;-77
2022/04/17 07:14:32;;;;;;;16.52;5.45;;;;;;;7.17;53.19;102682.84;5050394;28;20072;-77
2022/04/17 07:16:58;;;;;;;18.20;5.47;;;;;;;7.27;53.51;102675.41;5051314;28;20468;-77
2022/04/17 07:19:23;;;;;;;12.48;4.13;;;;;;;7.34;51.87;102682.31;5050843;28;20066;-77
2022/04/17 07:21:48;;;;;;;14.98;4.90;;;;;;;7.42;52.59;102681.22;5050567;28;20037;-77
2022/04/17 07:24:14;;;;;;;15.90;5.18;;;;;;;7.49;51.93;102669.41;5038510;28;20033;-77
2022/04/17 07:26:39;;;;;;;13.98;5.13;;;;;;;7.58;51.85;102665.56;5050670;28;20036;-77
2022/04/17 07:29:05;;;;;;;13.75;4.82;;;;;;;7.69;51.55;102666.97;5045067;28;20025;-77
2022/04/17 07:31:30;;;;;;;16.63;5.35;;;;;;;7.81;50.30;102667.50;5051608;28;20032;-77
2022/04/17 07:33:58;;;;;;;15.50;4.50;;;;;;;7.91;49.81;102671.63;5050159;28;20033;-77
2022/04/17 07:36:23;;;;;;;15.18;5.32;;;;;;;7.97;50.82;102662.53;5038600;28;20033;-77
2022/04/17 07:38:48;;;;;;;18.00;5.57;;;;;;;8.05;50.51;102666.72;5036094;28;20033;-77
2022/04/17 07:41:14;;;;;;;15.00;5.45;;;;;;;8.08;51.40;102659.47;5047009;28;20048;-77
2022/04/17 07:43:39;;;;;;;15.48;5.28;;;;;;;8.16;50.77;102665.47;5032552;28;20358;-77
2022/04/17 07:46:04;;;;;;;16.27;4.97;;;;;;;8.20;50.03;102656.41;5040848;28;20107;-77
2022/04/17 07:48:29;;;;;;;15.18;4.80;;;;;;;8.27;47.96;102657.91;5038925;28;20390;-77
2022/04/17 07:50:55;;;;;;;12.10;5.00;;;;;;;8.35;49.62;102652.31;5035853;28;20017;-77
2022/04/17 07:53:21;;;;;;;13.63;4.68;;;;;;;8.43;50.27;102650.22;5038799;28;20013;-78
2022/04/17 07:55:46;;;;;;;13.77;4.70;;;;;;;8.49;48.38;102647.38;5036187;28;20040;-75
2022/04/17 07:58:23;;;;;;;14.40;4.78;;;;;;;8.55;49.70;102659.66;5040772;28;20103;-68
2022/04/17 08:00:57;;;;;;;16.00;5.25;;;;;;;8.62;49.56;102655.81;5036237;28;20044;-71
2022/04/17 08:03:34;;;;;;;13.50;4.75;;;;;;;8.70;49.03;102655.56;5044454;28;20021;-75
2022/04/17 08:06:07;;;;;;;11.93;4.88;;;;;;;8.81;48.73;102649.81;5039784;28;20020;-76
2022/04/17 08:08:39;;;;;;;17.73;5.13;;;;;;;8.86;48.30;102647.84;5037798;28;20526;-76
2022/04/17 08:11:05;;;;;;;13.98;4.30;;;;;;;8.90;48.09;102649.47;5038660;28;20112;-76
2022/04/17 08:13:31;;;;;;;14.27;5.07;;;;;;;8.99;50.20;102650.91;5049409;28;20040;-76
2022/04/17 08:15:56;;;;;;;13.85;4.65;;;;;;;9.02;48.83;102645.44;5045811;28;20381;-76
2022/04/17 08:18:22;;;;;;;14.98;5.03;;;;;;;9.08;47.54;102656.81;5070156;28;20055;-77
2022/04/17 08:20:47;;;;;;;14.20;4.28;;;;;;;9.17;47.81;102644.00;5070798;28;20024;-77
2022/04/17 08:23:13;;;;;;;12.55;4.70;;;;;;;9.23;48.62;102641.06;5064671;28;20036;-77
2022/04/17 08:25:38;;;;;;;12.52;5.25;;;;;;;9.33;50.16;102653.19;5049563;28;20395;-77
2022/04/17 08:28:04;;;;;;;17.23;5.10;;;;;;;9.40;48.25;102648.44;5038032;28;20381;-78
2022/04/17 08:30:31;;;;;;;16.95;5.32;;;;;;;9.48;47.53;102642.78;5043277;28;20029;-78
2022/04/17 08:33:00;;;;;;;15.25;5.05;;;;;;;9.59;46.56;102644.09;5038117;28;20033;-78
2022/04/17 08:35:26;;;;;;;16.23;4.63;;;;;;;9.68;46.82;102637.50;5048576;28;20033;-78
2022/04/17 08:37:52;;;;;;;13.23;4.65;;;;;;;9.77;46.95;102644.31;5029757;28;20192;-78
2022/04/17 08:40:18;;;;;;;14.10;4.93;;;;;;;9.78;46.71;102636.19;5039545;28;20109;-78
2022/04/17 08:42:44;;;;;;;19.80;5.07;;;;;;;9.85;46.80;102633.22;5035895;28;20061;-79
2022/04/17 08:45:11;;;;;;;14.52;5.05;;;;;;;9.92;45.78;102634.72;5032084;28;20119;-78
2022/04/17 08:47:38;;;;;;;13.20;4.63;;;;;;;10.00;46.34;102634.41;5038979;28;20040;-77
2022/04/17 08:50:11;;;;;;;15.43;4.93;;;;;;;10.13;45.20;102628.44;5042061;28;20437;-77
2022/04/17 08:52:38;;;;;;;18.02;5.18;;;;;;;10.24;45.92;102630.66;5031658;28;20029;-78
2022/04/17 08:55:03;;;;;;;14.52;4.90;;;;;;;10.36;45.41;102631.97;5040295;28;20029;-78
2022/04/17 08:57:29;;;;;;;17.50;4.97;;;;;;;10.41;43.64;102623.69;5052251;28;20093;-79
2022/04/17 08:59:54;;;;;;;17.98;4.93;;;;;;;10.52;43.19;102625.94;5040218;28;20036;-77
2022/04/17 09:02:20;;;;;;;13.23;4.35;;;;;;;10.62;44.60;102620.06;5033627;28;20412;-77
2022/04/17 09:04:46;;;;;;;12.77;4.65;;;;;;;10.68;42.29;102618.91;5039387;28;20036;-78
2022/04/17 09:07:12;;;;;;;12.60;4.53;;;;;;;10.77;44.25;102615.78;5046317;28;20386;-78
2022/04/17 09:09:40;;;;;;;13.80;4.70;;;;;;;10.78;43.04;102616.69;5050772;28;20025;-79
2022/04/17 09:12:06;;;;;;;15.32;4.70;;;;;;;10.79;42.34;102618.41;5037410;28;20509;-78
2022/04/17 09:14:31;;;;;;;13.80;4.28;;;;;;;10.82;44.93;102616.47;5054303;28;20029;-78
2022/04/17 09:16:56;;;;;;;14.18;4.60;;;;;;;10.87;43.73;102612.69;5048620;28;20075;-78
2022/04/17 09:19:25;;;;;;;13.60;4.32;;;;;;;10.92;44.44;102610.66;5023307;28;20037;-78
2022/04/17 09:21:55;;;;;;;12.95;4.22;;;;;;;11.01;43.73;102604.84;5053151;28;20112;-78
2022/04/17 09:24:24;;;;;;;15.23;5.10;;;;;;;11.08;44.56;102600.91;5038345;28;20473;-78
2022/04/17 09:26:52;;;;;;;11.80;4.20;;;;;;;11.25;41.58;102607.34;5033046;28;20033;-78
2022/04/17 09:29:29;;;;;;;14.00;4.68;;;;;;;11.34;42.16;102610.44;5034326;28;20029;-78
2022/04/17 09:32:03;;;;;;;14.57;4.75;;;;;;;11.45;40.96;102601.84;5034148;28;20374;-78
2022/04/17 09:34:42;;;;;;;14.80;4.05;;;;;;;11.54;40.94;102598.69;5034068;28;20136;-78
2022/04/17 09:37:21;;;;;;;9.85;4.25;;;;;;;11.62;41.93;102592.06;5034593;28;20119;-78
2022/04/17 09:39:47;;;;;;;17.40;5.15;;;;;;;11.61;41.95;102595.69;5034846;28;20032;-78
2022/04/17 09:42:19;;;;;;;13.85;4.57;;;;;;;11.62;40.21;102592.06;5034013;28;20025;-78
2022/04/17 09:44:46;;;;;;;12.18;4.53;;;;;;;11.69;42.00;102588.13;5047114;28;20029;-78
2022/04/17 09:47:22;;;;;;;13.57;4.57;;;;;;;11.74;42.17;102587.88;5062623;28;20119;-78
2022/04/17 09:49:59;;;;;;;11.10;4.20;;;;;;;11.79;43.17;102581.31;5074127;28;20033;-78
2022/04/17 09:52:31;;;;;;;13.05;4.80;;;;;;;11.89;42.73;102576.34;5066056;28;20035;-78
2022/04/17 09:54:58;;;;;;;13.07;4.55;;;;;;;11.88;42.06;102570.06;5053908;28;20024;-78
2022/04/17 09:57:38;;;;;;;17.13;5.20;;;;;;;12.03;41.83;102568.41;5052895;28;20119;-78
2022/04/17 10:00:19;;;;;;;13.80;5.05;;;;;;;12.17;43.07;102564.16;5052885;28;20037;-78
2022/04/17 10:02:46;;;;;;;13.15;4.68;;;;;;;12.24;43.74;102547.56;5053416;28;20040;-78
2022/04/17 10:05:13;;;;;;;16.08;5.10;;;;;;;12.30;41.17;102554.47;5037949;28;20025;-78
2022/04/17 10:07:41;;;;;;;12.18;4.45;;;;;;;12.30;41.89;102540.97;5064689;28;20506;-78
2022/04/17 10:10:07;;;;;;;12.68;4.30;;;;;;;12.36;41.44;102537.09;5073360;28;20034;-78
2022/04/17 10:12:34;;;;;;;12.38;4.18;;;;;;;12.45;40.72;102541.97;5073120;28;20385;-78
2022/04/17 10:15:06;;;;;;;11.63;4.32;;;;;;;12.57;41.94;102533.19;5048175;28;20079;-78
2022/04/17 10:17:32;;;;;;;14.32;4.30;;;;;;;12.69;40.42;102526.25;5054974;28;20024;-78
2022/04/17 10:20:03;;;;;;;10.38;3.85;;;;;;;12.73;41.91;102521.56;5073419;28;20107;-78
2022/04/17 10:22:33;;;;;;;12.95;4.30;;;;;;;12.79;42.67;102523.06;5073385;28;20400;-78
2022/04/17 10:24:59;;;;;;;16.35;4.68;;;;;;;12.85;43.31;102518.19;5073110;28;20529;-78
2022/04/17 10:27:28;;;;;;;15.02;4.53;;;;;;;12.82;42.87;102518.34;5071831;28;20020;-78
2022/04/17 10:30:00;;;;;;;13.48;4.20;;;;;;;12.81;40.12;102510.34;5072193;28;20101;-78
2022/04/17 10:32:53;;;;;;;12.57;4.40;;;;;;;12.82;42.59;102504.00;5051142;28;20029;-78
2022/04/17 10:36:04;;;;;;;9.00;3.60;;;;;;;12.77;43.42;102499.72;5053089;28;20021;-78
2022/04/17 10:38:45;;;;;;;12.02;3.70;;;;;;;12.76;39.37;102497.97;5051633;28;20029;-78
2022/04/17 10:41:14;;;;;;;17.77;5.05;;;;;;;12.87;39.09;102489.28;5053542;28;20108;-78
2022/04/17 10:44:03;;;;;;;11.30;4.00;;;;;;;12.97;41.23;102486.06;5045679;28;20025;-78
2022/04/17 10:46:28;;;;;;;10.88;4.05;;;;;;;13.02;40.33;102473.19;5037046;28;20441;-78
2022/04/17 10:48:56;;;;;;;10.00;3.75;;;;;;;13.05;38.64;102471.16;5050536;28;20022;-78
2022/04/17 10:51:29;;;;;;;12.63;4.30;;;;;;;13.10;41.37;102469.09;5031618;28;20083;-78
2022/04/17 10:54:06;;;;;;;13.00;3.78;;;;;;;13.19;38.95;102473.09;5031281;28;20022;-78
2022/04/17 10:56:57;;;;;;;9.10;3.47;;;;;;;13.30;40.14;102467.03;5032763;28;20025;-78
2022/04/17 10:59:30;;;;;;;13.00;3.92;;;;;;;13.31;39.81;102458.00;5032854;28;20075;-78
2022/04/17 11:02:00;;;;;;;8.85;3.58;;;;;;;13.28;41.01;102455.47;5032691;28;20302;-79
2022/04/17 11:04:28;;;;;;;10.48;3.70;;;;;;;13.33;41.38;102455.19;5049663;28;20029;-79
2022/04/17 11:07:11;;;;;;;12.75;3.72;;;;;;;13.39;38.28;102449.44;5036646;28;20035;-79
2022/04/17 11:09:42;;;;;;;12.73;3.70;;;;;;;13.44;37.13;102450.03;5031895;28;20041;-79
2022/04/17 11:12:17;;;;;;;9.48;3.65;;;;;;;13.48;38.17;102440.78;5030879;28;20456;-79
2022/04/17 11:14:53;;;;;;;10.07;3.55;;;;;;;13.53;39.43;102437.81;5032862;28;20091;-79
2022/04/17 11:17:21;;;;;;;10.77;3.65;;;;;;;13.55;37.59;102438.59;5051577;28;20021;-79
2022/04/17 11:19:47;;;;;;;9.40;3.40;;;;;;;13.61;37.55;102438.22;5072287;28;20024;-79
2022/04/17 11:22:16;;;;;;;8.63;3.30;;;;;;;13.79;38.32;102439.81;5059866;28;20034;-79
2022/04/17 11:25:06;;;;;;;8.05;3.00;;;;;;;13.78;33.49;102437.19;5031950;28;20029;-79
2022/04/17 11:27:31;;;;;;;;;;;;;;;13.83;34.61;102429.66;5033306;28;20020;-79
2022/04/17 11:29:56;;;;;;;10.40;2.78;;;;;;;13.97;35.09;102428.81;5052172;28;19912;-79
2022/04/17 11:32:27;;;;;;;9.57;3.25;;;;;;;13.98;36.73;102420.63;5051998;28;20355;-79
2022/04/17 11:34:53;;;;;;;6.97;3.05;;;;;;;14.01;32.09;102410.56;5050306;28;20130;-79
2022/04/17 11:37:20;;;;;;;7.45;2.85;;;;;;;14.10;35.20;102420.78;5051653;28;20057;-79